sensor_id;sensor_type;location;lat;lon;timestamp;pressure;altitude;pressure_sealevel;temperature;humidity
16030;BME280;34770;49.272;11.070;2024-02-14T00:01:55;98204.53;;;0.71;99.75
16030;BME280;34770;49.272;11.070;2024-02-14T00:04:20;98180.72;;;0.66;98.89
16030;BME280;34770;49.272;11.070;2024-02-14T00:06:46;98202.00;;;0.88;98.00
16030;BME280;34770;49.272;11.070;2024-02-14T00:09:12;98199.31;;;0.88;97.97
16030;BME280;34770;49.272;11.070;2024-02-14T00:11:37;98150.09;;;0.56;97.05
16030;BME280;34770;49.272;11.070;2024-02-14T00:14:03;98199.84;;;0.96;96.76
16030;BME280;34770;49.272;11.070;2024-02-14T00:16:29;98195.88;;;0.86;96.23
16030;BME280;34770;49.272;11.070;2024-02-14T00:18:56;98195.06;;;0.84;96.51
16030;BME280;34770;49.272;11.070;2024-02-14T00:21:22;98173.34;;;0.73;95.29
16030;BME280;34770;49.272;11.070;2024-02-14T00:23:47;98201.53;;;0.78;94.83
16030;BME280;34770;49.272;11.070;2024-02-14T00:26:13;98192.84;;;0.73;95.36
16030;BME280;34770;49.272;11.070;2024-02-14T00:28:38;98197.66;;;0.65;95.01
16030;BME280;34770;49.272;11.070;2024-02-14T00:31:04;98198.34;;;0.70;96.39
16030;BME280;34770;49.272;11.070;2024-02-14T00:33:30;98200.84;;;0.73;97.02
16030;BME280;34770;49.272;11.070;2024-02-14T00:35:55;98182.13;;;0.54;95.79
16030;BME280;34770;49.272;11.070;2024-02-14T00:38:20;98182.38;;;0.48;95.72
16030;BME280;34770;49.272;11.070;2024-02-14T00:40:46;98188.16;;;0.38;94.83
16030;BME280;34770;49.272;11.070;2024-02-14T00:43:11;98196.41;;;0.32;95.91
16030;BME280;34770;49.272;11.070;2024-02-14T00:45:36;98197.22;;;0.34;95.63
16030;BME280;34770;49.272;11.070;2024-02-14T00:48:03;98189.50;;;0.28;96.23
16030;BME280;34770;49.272;11.070;2024-02-14T00:50:29;98172.81;;;0.23;96.56
16030;BME280;34770;49.272;11.070;2024-02-14T00:52:54;98200.88;;;0.31;96.84
16030;BME280;34770;49.272;11.070;2024-02-14T00:55:19;98192.34;;;0.23;96.60
16030;BME280;34770;49.272;11.070;2024-02-14T00:57:45;98203.66;;;0.28;96.47
16030;BME280;34770;49.272;11.070;2024-02-14T01:00:10;98208.19;;;0.26;96.22
16030;BME280;34770;49.272;11.070;2024-02-14T01:02:36;98197.41;;;0.29;95.92
16030;BME280;34770;49.272;11.070;2024-02-14T01:05:01;98193.00;;;0.28;96.87
16030;BME280;34770;49.272;11.070;2024-02-14T01:07:27;98204.91;;;0.41;97.57
16030;BME280;34770;49.272;11.070;2024-02-14T01:09:52;98208.50;;;0.40;97.50
16030;BME280;34770;49.272;11.070;2024-02-14T01:12:18;98210.25;;;0.41;97.65
16030;BME280;34770;49.272;11.070;2024-02-14T01:14:43;98204.69;;;0.46;98.15
16030;BME280;34770;49.272;11.070;2024-02-14T01:17:08;98192.03;;;0.31;97.80
16030;BME280;34770;49.272;11.070;2024-02-14T01:19:34;98208.75;;;0.34;96.70
16030;BME280;34770;49.272;11.070;2024-02-14T01:21:59;98208.38;;;0.43;98.28
16030;BME280;34770;49.272;11.070;2024-02-14T01:24:24;98213.56;;;0.46;97.66
16030;BME280;34770;49.272;11.070;2024-02-14T01:26:54;98191.59;;;0.41;97.75
16030;BME280;34770;49.272;11.070;2024-02-14T01:29:20;98198.38;;;0.48;97.96
16030;BME280;34770;49.272;11.070;2024-02-14T01:31:46;98192.47;;;0.42;98.13
16030;BME280;34770;49.272;11.070;2024-02-14T01:34:11;98167.22;;;0.29;98.05
16030;BME280;34770;49.272;11.070;2024-02-14T01:36:36;98202.78;;;0.49;98.49
16030;BME280;34770;49.272;11.070;2024-02-14T01:39:04;98203.41;;;0.56;97.95
16030;BME280;34770;49.272;11.070;2024-02-14T01:41:31;98211.41;;;0.56;98.35
16030;BME280;34770;49.272;11.070;2024-02-14T01:43:57;98205.66;;;0.65;98.84
16030;BME280;34770;49.272;11.070;2024-02-14T01:46:24;98191.03;;;0.53;98.71
16030;BME280;34770;49.272;11.070;2024-02-14T01:48:49;98205.38;;;0.71;98.49
16030;BME280;34770;49.272;11.070;2024-02-14T01:51:16;98203.06;;;0.64;97.35
16030;BME280;34770;49.272;11.070;2024-02-14T01:53:42;98197.53;;;0.68;98.32
16030;BME280;34770;49.272;11.070;2024-02-14T01:56:08;98199.72;;;0.79;98.53
16030;BME280;34770;49.272;11.070;2024-02-14T01:58:34;98200.72;;;0.76;97.47
16030;BME280;34770;49.272;11.070;2024-02-14T02:00:59;98189.34;;;0.73;98.27
16030;BME280;34770;49.272;11.070;2024-02-14T02:03:26;98175.00;;;0.55;97.75
16030;BME280;34770;49.272;11.070;2024-02-14T02:05:52;98179.06;;;0.64;97.85
16030;BME280;34770;49.272;11.070;2024-02-14T02:08:19;98189.78;;;0.62;97.00
16030;BME280;34770;49.272;11.070;2024-02-14T02:10:44;98173.34;;;0.52;96.85
16030;BME280;34770;49.272;11.070;2024-02-14T02:13:10;98176.78;;;0.54;97.01
16030;BME280;34770;49.272;11.070;2024-02-14T02:15:35;98180.53;;;0.50;96.63
16030;BME280;34770;49.272;11.070;2024-02-14T02:18:03;98166.78;;;0.39;97.55
16030;BME280;34770;49.272;11.070;2024-02-14T02:20:34;98175.38;;;0.46;97.58
16030;BME280;34770;49.272;11.070;2024-02-14T02:22:59;98173.72;;;0.43;96.99
16030;BME280;34770;49.272;11.070;2024-02-14T02:25:25;98128.66;;;0.17;97.25
16030;BME280;34770;49.272;11.070;2024-02-14T02:27:52;98177.38;;;0.41;97.39
16030;BME280;34770;49.272;11.070;2024-02-14T02:30:22;98163.31;;;0.37;98.65
16030;BME280;34770;49.272;11.070;2024-02-14T02:32:47;98175.25;;;0.49;98.82
16030;BME280;34770;49.272;11.070;2024-02-14T02:35:13;98169.06;;;0.48;99.16
16030;BME280;34770;49.272;11.070;2024-02-14T02:37:38;98178.53;;;0.55;99.13
16030;BME280;34770;49.272;11.070;2024-02-14T02:40:04;98146.28;;;0.41;99.49
16030;BME280;34770;49.272;11.070;2024-02-14T02:42:30;98149.88;;;0.61;99.83
16030;BME280;34770;49.272;11.070;2024-02-14T02:44:55;98164.53;;;0.71;100.00
16030;BME280;34770;49.272;11.070;2024-02-14T02:47:20;98167.06;;;0.74;100.00
16030;BME280;34770;49.272;11.070;2024-02-14T02:49:46;98162.59;;;0.74;99.29
16030;BME280;34770;49.272;11.070;2024-02-14T02:52:11;98169.28;;;0.64;98.04
16030;BME280;34770;49.272;11.070;2024-02-14T02:54:37;98152.19;;;0.48;98.04
16030;BME280;34770;49.272;11.070;2024-02-14T02:57:09;98165.47;;;0.70;99.34
16030;BME280;34770;49.272;11.070;2024-02-14T02:59:35;98163.59;;;0.72;99.59
16030;BME280;34770;49.272;11.070;2024-02-14T03:02:01;98168.41;;;0.84;99.07
16030;BME280;34770;49.272;11.070;2024-02-14T03:04:27;98159.31;;;0.88;98.77
16030;BME280;34770;49.272;11.070;2024-02-14T03:06:52;98167.69;;;0.99;98.81
16030;BME280;34770;49.272;11.070;2024-02-14T03:09:18;98167.56;;;1.02;97.77
16030;BME280;34770;49.272;11.070;2024-02-14T03:11:47;98175.44;;;1.05;98.04
16030;BME280;34770;49.272;11.070;2024-02-14T03:14:13;98161.81;;;1.11;98.15
16030;BME280;34770;49.272;11.070;2024-02-14T03:16:38;98171.50;;;1.13;98.16
16030;BME280;34770;49.272;11.070;2024-02-14T03:19:04;98170.47;;;1.16;97.82
16030;BME280;34770;49.272;11.070;2024-02-14T03:21:30;98140.56;;;1.09;97.92
16030;BME280;34770;49.272;11.070;2024-02-14T03:23:58;98163.06;;;1.23;97.73
16030;BME280;34770;49.272;11.070;2024-02-14T03:26:23;98164.88;;;1.22;97.98
16030;BME280;34770;49.272;11.070;2024-02-14T03:28:49;98161.91;;;1.28;96.96
16030;BME280;34770;49.272;11.070;2024-02-14T03:31:14;98163.06;;;1.23;96.89
16030;BME280;34770;49.272;11.070;2024-02-14T03:33:41;98158.78;;;1.18;96.80
16030;BME280;34770;49.272;11.070;2024-02-14T03:36:06;98154.50;;;0.96;97.04
16030;BME280;34770;49.272;11.070;2024-02-14T03:38:32;98136.19;;;0.88;96.90
16030;BME280;34770;49.272;11.070;2024-02-14T03:40:57;98158.63;;;1.03;96.97
16030;BME280;34770;49.272;11.070;2024-02-14T03:43:23;98162.25;;;0.82;95.83
16030;BME280;34770;49.272;11.070;2024-02-14T03:45:49;98155.94;;;0.64;96.72
16030;BME280;34770;49.272;11.070;2024-02-14T03:48:14;98161.41;;;0.61;96.54
16030;BME280;34770;49.272;11.070;2024-02-14T03:50:40;98150.25;;;0.51;96.91
16030;BME280;34770;49.272;11.070;2024-02-14T03:53:06;98109.50;;;0.29;98.11
16030;BME280;34770;49.272;11.070;2024-02-14T03:55:32;98169.53;;;0.58;98.06
16030;BME280;34770;49.272;11.070;2024-02-14T03:57:58;98166.22;;;0.53;99.10
16030;BME280;34770;49.272;11.070;2024-02-14T04:00:23;98162.94;;;0.46;98.14
16030;BME280;34770;49.272;11.070;2024-02-14T04:02:49;98170.38;;;0.38;98.25
16030;BME280;34770;49.272;11.070;2024-02-14T04:05:15;98160.91;;;0.31;97.95
16030;BME280;34770;49.272;11.070;2024-02-14T04:07:41;98153.50;;;0.18;97.63
16030;BME280;34770;49.272;11.070;2024-02-14T04:10:09;98147.88;;;0.04;97.73
16030;BME280;34770;49.272;11.070;2024-02-14T04:12:34;98166.03;;;0.16;97.38
16030;BME280;34770;49.272;11.070;2024-02-14T04:15:00;98166.47;;;0.05;97.56
16030;BME280;34770;49.272;11.070;2024-02-14T04:17:25;98174.59;;;0.02;97.63
16030;BME280;34770;49.272;11.070;2024-02-14T04:19:50;98172.72;;;0.04;97.20
16030;BME280;34770;49.272;11.070;2024-02-14T04:22:16;98173.50;;;0.06;96.98
16030;BME280;34770;49.272;11.070;2024-02-14T04:24:41;98157.25;;;0.14;97.30
16030;BME280;34770;49.272;11.070;2024-02-14T04:27:07;98164.09;;;0.19;96.75
16030;BME280;34770;49.272;11.070;2024-02-14T04:29:32;98162.44;;;0.37;97.76
16030;BME280;34770;49.272;11.070;2024-02-14T04:31:59;98149.13;;;0.37;98.15
16030;BME280;34770;49.272;11.070;2024-02-14T04:34:25;98159.25;;;0.49;98.22
16030;BME280;34770;49.272;11.070;2024-02-14T04:36:50;98163.25;;;0.59;98.49
16030;BME280;34770;49.272;11.070;2024-02-14T04:39:17;98170.34;;;0.60;98.87
16030;BME280;34770;49.272;11.070;2024-02-14T04:41:42;98144.94;;;0.51;98.60
16030;BME280;34770;49.272;11.070;2024-02-14T04:44:07;98169.06;;;0.69;99.18
16030;BME280;34770;49.272;11.070;2024-02-14T04:46:33;98166.28;;;0.72;99.18
16030;BME280;34770;49.272;11.070;2024-02-14T04:49:00;98161.47;;;0.80;99.37
16030;BME280;34770;49.272;11.070;2024-02-14T04:51:28;98163.53;;;0.73;99.42
16030;BME280;34770;49.272;11.070;2024-02-14T04:53:54;98161.53;;;0.78;99.08
16030;BME280;34770;49.272;11.070;2024-02-14T04:56:23;98150.53;;;0.86;99.78
16030;BME280;34770;49.272;11.070;2024-02-14T04:58:49;98160.97;;;0.90;98.23
16030;BME280;34770;49.272;11.070;2024-02-14T05:01:14;98142.06;;;0.76;98.88
16030;BME280;34770;49.272;11.070;2024-02-14T05:03:40;98174.91;;;0.97;98.86
16030;BME280;34770;49.272;11.070;2024-02-14T05:06:06;98162.50;;;0.96;98.61
16030;BME280;34770;49.272;11.070;2024-02-14T05:08:31;98169.50;;;0.98;99.11
16030;BME280;34770;49.272;11.070;2024-02-14T05:10:57;98143.44;;;0.85;98.97
16030;BME280;34770;49.272;11.070;2024-02-14T05:13:22;98179.34;;;0.98;99.33
16030;BME280;34770;49.272;11.070;2024-02-14T05:15:48;98159.97;;;0.93;98.36
16030;BME280;34770;49.272;11.070;2024-02-14T05:18:15;98181.56;;;1.07;99.47
16030;BME280;34770;49.272;11.070;2024-02-14T05:20:41;98174.09;;;1.15;100.00
16030;BME280;34770;49.272;11.070;2024-02-14T05:23:06;98190.75;;;1.20;100.00
16030;BME280;34770;49.272;11.070;2024-02-14T05:25:31;98189.63;;;1.26;100.00
16030;BME280;34770;49.272;11.070;2024-02-14T05:27:58;98185.03;;;1.29;100.00
16030;BME280;34770;49.272;11.070;2024-02-14T05:30:23;98195.88;;;1.25;98.61
16030;BME280;34770;49.272;11.070;2024-02-14T05:32:50;98183.91;;;1.14;98.49
16030;BME280;34770;49.272;11.070;2024-02-14T05:35:18;98194.13;;;1.24;97.95
16030;BME280;34770;49.272;11.070;2024-02-14T05:37:43;98189.63;;;1.26;97.72
16030;BME280;34770;49.272;11.070;2024-02-14T05:40:09;98200.34;;;1.24;97.53
16030;BME280;34770;49.272;11.070;2024-02-14T05:42:34;98192.47;;;1.21;97.83
16030;BME280;34770;49.272;11.070;2024-02-14T05:44:59;98194.00;;;1.27;97.43
16030;BME280;34770;49.272;11.070;2024-02-14T05:47:25;98189.53;;;1.27;97.09
16030;BME280;34770;49.272;11.070;2024-02-14T05:49:50;98186.72;;;1.30;96.85
16030;BME280;34770;49.272;11.070;2024-02-14T05:52:16;98193.69;;;1.34;96.59
16030;BME280;34770;49.272;11.070;2024-02-14T05:54:41;98187.75;;;1.28;96.34
16030;BME280;34770;49.272;11.070;2024-02-14T05:57:07;98189.34;;;1.32;97.07
16030;BME280;34770;49.272;11.070;2024-02-14T05:59:33;98189.13;;;1.36;97.00
16030;BME280;34770;49.272;11.070;2024-02-14T06:01:58;98206.53;;;1.45;97.30
16030;BME280;34770;49.272;11.070;2024-02-14T06:04:24;98198.66;;;1.60;98.24
16030;BME280;34770;49.272;11.070;2024-02-14T06:06:49;98187.19;;;1.58;98.67
16030;BME280;34770;49.272;11.070;2024-02-14T06:09:15;98189.19;;;1.72;98.93
16030;BME280;34770;49.272;11.070;2024-02-14T06:11:41;98196.34;;;1.71;98.62
16030;BME280;34770;49.272;11.070;2024-02-14T06:14:08;98195.56;;;1.69;98.89
16030;BME280;34770;49.272;11.070;2024-02-14T06:16:34;98201.53;;;1.74;98.73
16030;BME280;34770;49.272;11.070;2024-02-14T06:19:00;98210.28;;;1.78;98.60
16030;BME280;34770;49.272;11.070;2024-02-14T06:21:26;98192.25;;;1.64;98.61
16030;BME280;34770;49.272;11.070;2024-02-14T06:23:52;98211.44;;;1.72;98.67
16030;BME280;34770;49.272;11.070;2024-02-14T06:26:17;98212.22;;;1.74;98.95
16030;BME280;34770;49.272;11.070;2024-02-14T06:28:44;98199.47;;;1.62;99.41
16030;BME280;34770;49.272;11.070;2024-02-14T06:31:09;98208.31;;;1.63;99.61
16030;BME280;34770;49.272;11.070;2024-02-14T06:33:35;98204.88;;;1.61;99.91
16030;BME280;34770;49.272;11.070;2024-02-14T06:36:01;98227.25;;;1.77;99.98
16030;BME280;34770;49.272;11.070;2024-02-14T06:38:26;98229.78;;;1.80;100.00
16030;BME280;34770;49.272;11.070;2024-02-14T06:40:51;98235.09;;;1.80;100.00
16030;BME280;34770;49.272;11.070;2024-02-14T06:43:17;98233.16;;;1.84;100.00
16030;BME280;34770;49.272;11.070;2024-02-14T06:45:42;98241.03;;;1.87;100.00
16030;BME280;34770;49.272;11.070;2024-02-14T06:48:08;98219.81;;;1.84;100.00
16030;BME280;34770;49.272;11.070;2024-02-14T06:50:34;98234.69;;;1.89;100.00
16030;BME280;34770;49.272;11.070;2024-02-14T06:52:59;98231.63;;;1.97;100.00
16030;BME280;34770;49.272;11.070;2024-02-14T06:55:26;98215.47;;;2.00;100.00
16030;BME280;34770;49.272;11.070;2024-02-14T06:57:52;98210.69;;;2.06;100.00
16030;BME280;34770;49.272;11.070;2024-02-14T07:00:17;98218.78;;;2.23;100.00
16030;BME280;34770;49.272;11.070;2024-02-14T07:02:43;98213.59;;;2.38;100.00
16030;BME280;34770;49.272;11.070;2024-02-14T07:05:08;98219.91;;;2.54;100.00
16030;BME280;34770;49.272;11.070;2024-02-14T07:07:38;98220.84;;;2.53;100.00
16030;BME280;34770;49.272;11.070;2024-02-14T07:10:04;98220.63;;;2.57;100.00
16030;BME280;34770;49.272;11.070;2024-02-14T07:12:31;98227.25;;;2.67;100.00
16030;BME280;34770;49.272;11.070;2024-02-14T07:14:57;98225.03;;;2.75;100.00
16030;BME280;34770;49.272;11.070;2024-02-14T07:17:22;98212.31;;;2.80;100.00
16030;BME280;34770;49.272;11.070;2024-02-14T07:19:47;98219.16;;;2.86;100.00
16030;BME280;34770;49.272;11.070;2024-02-14T07:22:15;98209.00;;;2.92;100.00
16030;BME280;34770;49.272;11.070;2024-02-14T07:24:41;98214.03;;;2.99;100.00
16030;BME280;34770;49.272;11.070;2024-02-14T07:27:08;98210.63;;;3.12;100.00
16030;BME280;34770;49.272;11.070;2024-02-14T07:29:33;98213.41;;;3.11;100.00
16030;BME280;34770;49.272;11.070;2024-02-14T07:32:01;98206.63;;;2.86;98.81
16030;BME280;34770;49.272;11.070;2024-02-14T07:34:27;98212.47;;;2.95;99.89
16030;BME280;34770;49.272;11.070;2024-02-14T07:36:52;98199.00;;;2.96;99.75
16030;BME280;34770;49.272;11.070;2024-02-14T07:39:18;98187.38;;;2.97;99.19
16030;BME280;34770;49.272;11.070;2024-02-14T07:41:43;98196.56;;;3.09;99.11
16030;BME280;34770;49.272;11.070;2024-02-14T07:44:09;98199.75;;;3.15;99.01
16030;BME280;34770;49.272;11.070;2024-02-14T07:46:34;98206.28;;;3.27;99.98
16030;BME280;34770;49.272;11.070;2024-02-14T07:49:00;98211.06;;;3.37;100.00
16030;BME280;34770;49.272;11.070;2024-02-14T07:51:25;98195.41;;;3.30;99.08
16030;BME280;34770;49.272;11.070;2024-02-14T07:53:51;98220.22;;;3.33;98.71
16030;BME280;34770;49.272;11.070;2024-02-14T07:56:16;98203.78;;;3.24;99.34
16030;BME280;34770;49.272;11.070;2024-02-14T07:58:43;98221.09;;;3.34;99.98
16030;BME280;34770;49.272;11.070;2024-02-14T08:01:09;98229.47;;;3.43;99.61
16030;BME280;34770;49.272;11.070;2024-02-14T08:03:34;98211.06;;;3.37;99.86
16030;BME280;34770;49.272;11.070;2024-02-14T08:05:59;98210.50;;;3.48;99.93
16030;BME280;34770;49.272;11.070;2024-02-14T08:08:26;98218.84;;;3.59;98.67
16030;BME280;34770;49.272;11.070;2024-02-14T08:10:53;98244.50;;;3.63;97.37
16030;BME280;34770;49.272;11.070;2024-02-14T08:13:19;98250.13;;;3.74;98.40
16030;BME280;34770;49.272;11.070;2024-02-14T08:15:45;98245.09;;;3.68;97.82
16030;BME280;34770;49.272;11.070;2024-02-14T08:18:11;98236.38;;;3.65;98.83
16030;BME280;34770;49.272;11.070;2024-02-14T08:20:37;98243.44;;;3.66;99.09
16030;BME280;34770;49.272;11.070;2024-02-14T08:23:03;98224.19;;;3.59;99.32
16030;BME280;34770;49.272;11.070;2024-02-14T08:25:28;98252.19;;;3.69;99.88
16030;BME280;34770;49.272;11.070;2024-02-14T08:27:56;98230.88;;;3.68;99.77
16030;BME280;34770;49.272;11.070;2024-02-14T08:30:21;98240.66;;;3.84;100.00
16030;BME280;34770;49.272;11.070;2024-02-14T08:32:46;98235.53;;;3.80;99.89
16030;BME280;34770;49.272;11.070;2024-02-14T08:35:12;98242.47;;;3.99;99.87
16030;BME280;34770;49.272;11.070;2024-02-14T08:37:39;98246.22;;;4.13;99.00
16030;BME280;34770;49.272;11.070;2024-02-14T08:40:06;98240.41;;;4.04;99.37
16030;BME280;34770;49.272;11.070;2024-02-14T08:42:33;98244.16;;;4.18;99.28
16030;BME280;34770;49.272;11.070;2024-02-14T08:44:58;98243.00;;;4.22;100.00
16030;BME280;34770;49.272;11.070;2024-02-14T08:47:24;98240.91;;;4.27;100.00
16030;BME280;34770;49.272;11.070;2024-02-14T08:49:49;98234.53;;;4.45;100.00
16030;BME280;34770;49.272;11.070;2024-02-14T08:52:14;98226.81;;;4.54;100.00
16030;BME280;34770;49.272;11.070;2024-02-14T08:54:40;98228.25;;;4.76;100.00
16030;BME280;34770;49.272;11.070;2024-02-14T08:57:05;98232.44;;;4.95;100.00
16030;BME280;34770;49.272;11.070;2024-02-14T08:59:30;98234.03;;;5.13;100.00
16030;BME280;34770;49.272;11.070;2024-02-14T09:01:56;98238.47;;;5.28;99.50
16030;BME280;34770;49.272;11.070;2024-02-14T09:04:22;98231.97;;;5.47;99.07
16030;BME280;34770;49.272;11.070;2024-02-14T09:06:47;98220.63;;;5.56;98.18
16030;BME280;34770;49.272;11.070;2024-02-14T09:09:12;98231.19;;;5.73;97.54
16030;BME280;34770;49.272;11.070;2024-02-14T09:11:40;98235.06;;;5.83;96.03
16030;BME280;34770;49.272;11.070;2024-02-14T09:14:06;98237.47;;;5.88;95.55
16030;BME280;34770;49.272;11.070;2024-02-14T09:16:34;98227.72;;;5.87;95.64
16030;BME280;34770;49.272;11.070;2024-02-14T09:19:00;98238.72;;;5.96;95.52
16030;BME280;34770;49.272;11.070;2024-02-14T09:21:26;98234.09;;;5.98;95.08
16030;BME280;34770;49.272;11.070;2024-02-14T09:23:53;98224.41;;;6.10;94.96
16030;BME280;34770;49.272;11.070;2024-02-14T09:26:18;98219.88;;;6.10;94.59
16030;BME280;34770;49.272;11.070;2024-02-14T09:28:44;98227.84;;;6.26;94.88
16030;BME280;34770;49.272;11.070;2024-02-14T09:31:09;98228.84;;;6.37;93.76
16030;BME280;34770;49.272;11.070;2024-02-14T09:33:37;98211.38;;;6.45;93.60
16030;BME280;34770;49.272;11.070;2024-02-14T09:36:05;98214.50;;;6.78;93.40
16030;BME280;34770;49.272;11.070;2024-02-14T09:38:31;98218.22;;;7.02;91.77
16030;BME280;34770;49.272;11.070;2024-02-14T09:41:24;98206.38;;;7.05;89.95
16030;BME280;34770;49.272;11.070;2024-02-14T09:43:47;98226.94;;;7.32;88.91
16030;BME280;34770;49.272;11.070;2024-02-14T09:46:13;98224.66;;;7.39;85.82
16030;BME280;34770;49.272;11.070;2024-02-14T09:48:41;98211.09;;;7.40;85.39
16030;BME280;34770;49.272;11.070;2024-02-14T09:51:09;98222.06;;;7.50;85.57
16030;BME280;34770;49.272;11.070;2024-02-14T09:53:34;98216.16;;;7.45;83.96
16030;BME280;34770;49.272;11.070;2024-02-14T09:56:02;98221.22;;;7.49;83.66
16030;BME280;34770;49.272;11.070;2024-02-14T09:58:27;98215.38;;;7.55;82.76
16030;BME280;34770;49.272;11.070;2024-02-14T10:00:53;98212.47;;;7.58;81.88
16030;BME280;34770;49.272;11.070;2024-02-14T10:03:19;98218.00;;;7.82;80.72
16030;BME280;34770;49.272;11.070;2024-02-14T10:05:44;98225.63;;;8.01;80.47
16030;BME280;34770;49.272;11.070;2024-02-14T10:08:10;98225.50;;;8.28;78.92
16030;BME280;34770;49.272;11.070;2024-02-14T10:10:37;98229.63;;;8.57;77.74
16030;BME280;34770;49.272;11.070;2024-02-14T10:13:06;98225.72;;;8.61;74.81
16030;BME280;34770;49.272;11.070;2024-02-14T10:15:32;98228.63;;;8.94;76.78
16030;BME280;34770;49.272;11.070;2024-02-14T10:18:01;98223.84;;;8.98;74.74
16030;BME280;34770;49.272;11.070;2024-02-14T10:20:28;98224.34;;;9.03;73.86
16030;BME280;34770;49.272;11.070;2024-02-14T10:23:02;98232.50;;;9.14;72.31
16030;BME280;34770;49.272;11.070;2024-02-14T10:25:29;98217.09;;;9.38;70.85
16030;BME280;34770;49.272;11.070;2024-02-14T10:27:54;98223.97;;;9.31;70.21
16030;BME280;34770;49.272;11.070;2024-02-14T10:30:20;98214.53;;;9.37;71.05
16030;BME280;34770;49.272;11.070;2024-02-14T10:32:47;98229.63;;;9.28;69.99
16030;BME280;34770;49.272;11.070;2024-02-14T10:35:15;98225.50;;;9.11;70.42
16030;BME280;34770;49.272;11.070;2024-02-14T10:37:41;98218.22;;;9.01;72.91
16030;BME280;34770;49.272;11.070;2024-02-14T10:40:08;98233.19;;;9.05;73.88
16030;BME280;34770;49.272;11.070;2024-02-14T10:42:36;98215.00;;;9.07;74.37
16030;BME280;34770;49.272;11.070;2024-02-14T10:45:02;98215.84;;;9.31;74.04
16030;BME280;34770;49.272;11.070;2024-02-14T10:47:34;98221.59;;;9.61;72.75
16030;BME280;34770;49.272;11.070;2024-02-14T10:50:02;98225.03;;;9.63;72.21
16030;BME280;34770;49.272;11.070;2024-02-14T10:52:32;98218.25;;;9.58;72.16
16030;BME280;34770;49.272;11.070;2024-02-14T10:55:01;98216.03;;;9.63;74.01
16030;BME280;34770;49.272;11.070;2024-02-14T10:57:28;98222.72;;;9.70;72.22
16030;BME280;34770;49.272;11.070;2024-02-14T10:59:54;98212.75;;;9.70;72.56
16030;BME280;34770;49.272;11.070;2024-02-14T11:02:21;98206.94;;;9.53;71.67
16030;BME280;34770;49.272;11.070;2024-02-14T11:04:47;98220.97;;;9.58;70.73
16030;BME280;34770;49.272;11.070;2024-02-14T11:07:13;98216.88;;;9.52;70.01
16030;BME280;34770;49.272;11.070;2024-02-14T11:09:41;98212.09;;;9.45;70.58
16030;BME280;34770;49.272;11.070;2024-02-14T11:12:08;98216.16;;;9.50;69.27
16030;BME280;34770;49.272;11.070;2024-02-14T11:14:36;98215.31;;;9.61;69.99
16030;BME280;34770;49.272;11.070;2024-02-14T11:17:04;98214.97;;;9.65;68.64
16030;BME280;34770;49.272;11.070;2024-02-14T11:19:33;98220.88;;;9.70;68.65
16030;BME280;34770;49.272;11.070;2024-02-14T11:22:19;98184.44;;;9.63;67.91
16030;BME280;34770;49.272;11.070;2024-02-14T11:24:48;98214.75;;;9.90;69.98
16030;BME280;34770;49.272;11.070;2024-02-14T11:27:17;98214.00;;;10.00;67.48
16030;BME280;34770;49.272;11.070;2024-02-14T11:29:51;98205.88;;;10.11;67.04
16030;BME280;34770;49.272;11.070;2024-02-14T11:32:17;98207.38;;;10.26;67.43
16030;BME280;34770;49.272;11.070;2024-02-14T11:34:43;98201.53;;;10.53;66.67
16030;BME280;34770;49.272;11.070;2024-02-14T11:37:09;98211.25;;;10.77;66.87
16030;BME280;34770;49.272;11.070;2024-02-14T11:39:34;98207.16;;;11.15;65.16
16030;BME280;34770;49.272;11.070;2024-02-14T11:42:00;98185.72;;;11.12;65.51
16030;BME280;34770;49.272;11.070;2024-02-14T11:44:25;98178.59;;;10.79;66.17
16030;BME280;34770;49.272;11.070;2024-02-14T11:46:51;98192.44;;;10.96;67.46
16030;BME280;34770;49.272;11.070;2024-02-14T11:49:17;98201.66;;;11.26;65.93
16030;BME280;34770;49.272;11.070;2024-02-14T11:51:42;98172.50;;;11.18;66.28
16030;BME280;34770;49.272;11.070;2024-02-14T11:54:08;98196.34;;;11.35;66.78
16030;BME280;34770;49.272;11.070;2024-02-14T11:56:36;98194.16;;;11.29;65.65
16030;BME280;34770;49.272;11.070;2024-02-14T11:59:03;98186.13;;;11.48;65.48
16030;BME280;34770;49.272;11.070;2024-02-14T12:01:38;98181.25;;;11.84;64.58
16030;BME280;34770;49.272;11.070;2024-02-14T12:04:06;98184.63;;;12.37;62.38
16030;BME280;34770;49.272;11.070;2024-02-14T12:06:35;98186.81;;;13.30;63.07
16030;BME280;34770;49.272;11.070;2024-02-14T12:09:01;98167.44;;;12.95;60.39
16030;BME280;34770;49.272;11.070;2024-02-14T12:11:31;98171.59;;;12.90;61.91
16030;BME280;34770;49.272;11.070;2024-02-14T12:14:01;98185.53;;;13.15;61.46
16030;BME280;34770;49.272;11.070;2024-02-14T12:16:26;98184.19;;;12.91;60.67
16030;BME280;34770;49.272;11.070;2024-02-14T12:19:15;98181.38;;;13.11;59.82
16030;BME280;34770;49.272;11.070;2024-02-14T12:21:41;98183.72;;;12.66;61.64
16030;BME280;34770;49.272;11.070;2024-02-14T12:24:09;98182.78;;;12.37;61.88
16030;BME280;34770;49.272;11.070;2024-02-14T12:26:36;98179.81;;;12.10;64.78
16030;BME280;34770;49.272;11.070;2024-02-14T12:29:05;98182.19;;;12.34;63.24
16030;BME280;34770;49.272;11.070;2024-02-14T12:31:34;98171.91;;;11.97;65.59
16030;BME280;34770;49.272;11.070;2024-02-14T12:34:03;98189.63;;;12.01;65.02
16030;BME280;34770;49.272;11.070;2024-02-14T12:36:31;98182.47;;;12.31;63.53
16030;BME280;34770;49.272;11.070;2024-02-14T12:38:58;98176.91;;;12.91;63.28
16030;BME280;34770;49.272;11.070;2024-02-14T12:41:23;98160.72;;;12.99;62.93
16030;BME280;34770;49.272;11.070;2024-02-14T12:43:51;98165.97;;;12.72;62.24
16030;BME280;34770;49.272;11.070;2024-02-14T12:46:16;98186.16;;;12.30;65.01
16030;BME280;34770;49.272;11.070;2024-02-14T12:48:42;98192.31;;;12.22;65.48
16030;BME280;34770;49.272;11.070;2024-02-14T12:51:07;98186.69;;;12.14;66.86
16030;BME280;34770;49.272;11.070;2024-02-14T12:53:34;98198.25;;;12.06;67.65